createdAt,value
2019-04-01T03:06:53.625Z,74.53
2019-04-01T03:57:47.197Z,66.27
2019-04-01T04:00:46.144Z,65.80
2019-04-01T04:03:49.352Z,62.90
2019-04-01T04:06:21.183Z,79.20
2019-04-01T04:08:50.057Z,67.50
2019-04-01T04:11:19.008Z,72.37
2019-04-01T04:13:56.345Z,72.97
2019-04-01T04:16:25.211Z,67.70
2019-04-01T04:18:54.093Z,64.43
2019-04-01T04:21:24.130Z,65.83
2019-04-01T04:23:53.364Z,65.53
2019-04-01T04:26:24.274Z,71.43
2019-04-01T04:28:53.102Z,68.70
2019-04-01T04:31:22.534Z,64.70
2019-04-01T04:33:51.395Z,66.00
2019-04-01T04:36:20.291Z,70.93
2019-04-01T04:38:49.226Z,66.17
2019-04-01T04:41:18.389Z,66.13
2019-04-01T04:43:47.341Z,65.93
2019-04-01T04:46:20.999Z,64.23
2019-04-01T04:48:53.325Z,58.93
2019-04-01T04:51:22.280Z,66.93
2019-04-01T04:53:51.184Z,69.43
2019-04-01T04:56:20.092Z,66.93
2019-04-01T04:58:49.122Z,66.73
2019-04-01T05:01:18.078Z,60.83
2019-04-01T05:03:49.448Z,74.77
2019-04-01T05:06:18.421Z,73.63
2019-04-01T05:08:47.346Z,68.63
2019-04-01T05:11:16.360Z,71.00
2019-04-01T05:13:45.263Z,66.13
2019-04-01T05:16:14.239Z,75.33
2019-04-01T05:18:45.692Z,70.67
2019-04-01T05:21:17.459Z,65.27
2019-04-01T05:23:47.284Z,70.47
2019-04-01T05:26:17.625Z,71.97
2019-04-01T05:28:47.188Z,69.30
2019-04-01T05:31:19.788Z,71.33
2019-04-01T05:33:55.654Z,70.27
2019-04-01T05:36:24.664Z,65.40
2019-04-01T05:38:53.915Z,68.67
2019-04-01T05:41:22.881Z,66.00
2019-04-01T05:43:51.841Z,68.00
2019-04-01T05:46:20.700Z,62.13
2019-04-01T05:48:49.583Z,63.57
2019-04-01T05:51:18.442Z,67.93
2019-04-01T05:53:47.494Z,66.60
2019-04-01T05:56:16.363Z,65.30
2019-04-01T05:58:45.248Z,75.37
2019-04-01T06:01:18.511Z,65.37
2019-04-01T06:03:48.441Z,57.53
2019-04-01T06:06:17.391Z,59.53
2019-04-01T06:12:00.929Z,53.37
2019-04-01T06:14:31.812Z,50.43
2019-04-01T06:17:00.981Z,51.40
2019-04-01T06:19:29.952Z,48.20
2019-04-01T06:22:02.125Z,62.57
2019-04-01T06:24:33.461Z,45.50
2019-04-01T06:27:03.995Z,48.47
2019-04-01T06:29:33.128Z,46.40
2019-04-01T06:32:08.148Z,51.17
2019-04-01T06:34:52.367Z,45.73
2019-04-01T06:37:10.890Z,48.43
2019-04-01T06:39:39.913Z,44.23
2019-04-01T06:42:08.753Z,57.83
2019-04-01T06:44:37.695Z,57.10
2019-04-01T06:47:08.063Z,44.10
2019-04-01T06:49:37.028Z,45.67
2019-04-01T06:52:06.008Z,41.20
2019-04-01T06:54:34.864Z,44.33
2019-04-01T06:59:54.989Z,61.67
2019-04-01T07:02:23.886Z,43.00
2019-04-01T07:04:52.806Z,41.40
2019-04-01T07:07:21.692Z,37.87
2019-04-01T07:09:50.937Z,42.90
2019-04-01T07:12:19.916Z,39.43
2019-04-01T07:14:48.882Z,49.50
2019-04-01T07:17:17.804Z,45.20
2019-04-01T07:19:46.721Z,47.77
2019-04-01T07:22:15.891Z,43.70
2019-04-01T07:24:44.761Z,40.87
2019-04-01T07:27:13.621Z,38.07
2019-04-01T07:29:42.514Z,39.60
2019-04-01T07:32:14.428Z,39.50
2019-04-01T07:34:42.036Z,48.47
2019-04-01T07:37:10.915Z,44.60
2019-04-01T07:39:44.178Z,40.17
2019-04-01T07:42:13.295Z,35.83
2019-04-01T07:44:42.243Z,41.23
2019-04-01T07:47:11.097Z,40.90
2019-04-01T07:49:40.126Z,42.23
2019-04-01T07:52:08.977Z,46.50
2019-04-01T07:54:37.961Z,42.27
2019-04-01T07:57:07.112Z,59.30
2019-04-01T07:59:36.220Z,38.23
2019-04-01T08:02:10.717Z,40.67
2019-04-01T08:04:39.608Z,43.23
2019-04-01T08:07:08.533Z,39.33
2019-04-01T08:09:37.445Z,38.43
2019-04-01T08:12:09.234Z,42.87
2019-04-01T08:14:38.115Z,38.13
2019-04-01T08:17:06.961Z,39.87
2019-04-01T08:19:35.920Z,38.83
2019-04-01T08:22:04.956Z,37.43
2019-04-01T08:24:33.793Z,62.10
2019-04-01T08:27:02.548Z,41.57
2019-04-01T08:29:31.340Z,44.13
2019-04-01T08:32:00.180Z,35.73
2019-04-01T08:34:29.060Z,38.03
2019-04-01T08:36:57.816Z,37.77
2019-04-01T08:39:26.604Z,38.53
2019-04-01T08:41:55.358Z,35.93
2019-04-01T08:44:24.285Z,36.20
2019-04-01T08:46:53.029Z,41.80
2019-04-01T08:49:21.835Z,36.67
2019-04-01T08:51:50.621Z,40.00
2019-04-01T08:54:19.586Z,39.20
2019-04-01T08:56:49.262Z,36.80
2019-04-01T08:59:18.113Z,37.87
2019-04-01T09:01:46.956Z,35.70
2019-04-01T09:04:16.143Z,35.37
2019-04-01T09:06:44.983Z,38.77
2019-04-01T09:09:13.762Z,36.17
2019-04-01T09:11:43.114Z,35.87
2019-04-01T09:14:11.980Z,31.13
2019-04-01T09:16:42.139Z,32.37
2019-04-01T09:19:10.921Z,34.57
2019-04-01T09:21:39.671Z,38.13
2019-04-01T09:24:08.439Z,44.70
2019-04-01T09:26:37.197Z,42.73
2019-04-01T10:23:03.968Z,32.07
2019-04-01T10:25:32.742Z,35.43
2019-04-01T10:28:01.530Z,33.73
2019-04-01T10:30:30.408Z,33.67
2019-04-01T10:33:02.129Z,34.23
2019-04-01T10:35:29.629Z,38.27
2019-04-01T10:37:58.371Z,36.00
2019-04-01T10:40:27.177Z,32.37
2019-04-01T10:42:55.995Z,31.73
2019-04-01T10:45:24.793Z,32.33
2019-04-01T10:47:53.588Z,34.13
2019-04-01T10:50:22.595Z,34.17
2019-04-01T10:52:51.464Z,32.37
2019-04-01T10:55:21.264Z,31.27
2019-04-01T10:57:53.729Z,35.20
2019-04-01T11:00:26.977Z,34.70
2019-04-01T11:02:55.828Z,31.50
2019-04-01T11:05:24.844Z,30.00
2019-04-01T11:07:53.857Z,34.80
2019-04-01T11:10:22.887Z,28.57
2019-04-01T11:12:54.261Z,31.33
2019-04-01T11:15:23.164Z,28.80
2019-04-01T11:17:52.669Z,30.33
2019-04-01T11:20:21.777Z,28.67
2019-04-01T11:22:50.660Z,32.57
2019-04-01T11:25:19.568Z,36.43
2019-04-01T11:27:48.428Z,41.87
2019-04-01T11:30:17.697Z,35.17
2019-04-01T11:32:46.676Z,28.50
2019-04-01T11:35:16.264Z,32.40
2019-04-01T11:37:45.422Z,31.40
2019-04-01T11:40:14.539Z,26.83
2019-04-01T11:42:45.080Z,26.20
2019-04-01T11:45:14.146Z,26.33
2019-04-01T11:47:43.106Z,33.63
2019-04-01T11:50:12.031Z,30.43
2019-04-01T11:52:41.011Z,39.33
2019-04-01T11:55:10.170Z,35.17
2019-04-01T11:57:40.541Z,28.30
2019-04-01T12:00:13.281Z,30.67
2019-04-01T12:02:42.493Z,27.20
2019-04-01T12:05:11.442Z,27.50
2019-04-01T12:07:40.279Z,26.23
2019-04-01T12:10:09.388Z,27.80
2019-04-01T12:12:38.294Z,30.37
2019-04-01T12:15:11.343Z,30.67
2019-04-01T12:17:41.408Z,31.87
2019-04-01T12:20:09.463Z,35.00
2019-04-01T12:22:38.394Z,28.83
2019-04-01T12:25:09.215Z,27.13
2019-04-01T12:27:38.197Z,27.67
2019-04-01T12:30:07.222Z,34.97
2019-04-01T12:32:36.147Z,30.33
2019-04-01T12:35:06.076Z,27.17
2019-04-01T12:37:34.880Z,27.37
2019-04-01T12:40:04.745Z,25.63
2019-04-01T12:42:33.650Z,28.60
2019-04-01T12:45:02.529Z,29.00
2019-04-01T12:47:35.700Z,27.27
2019-04-01T12:50:02.004Z,30.67
2019-04-01T12:52:30.873Z,29.50
2019-04-01T12:55:01.109Z,33.00
2019-04-01T12:57:30.095Z,26.10
2019-04-01T12:59:58.938Z,27.17
2019-04-01T13:02:27.838Z,27.47
2019-04-01T13:04:56.706Z,26.30
2019-04-01T13:07:25.487Z,27.23
2019-04-01T13:09:54.351Z,26.83
2019-04-01T13:12:26.901Z,26.30
2019-04-01T13:14:55.515Z,25.47
2019-04-01T13:17:24.247Z,26.87
2019-04-01T13:19:53.134Z,22.63
2019-04-01T13:22:22.594Z,30.63
2019-04-01T13:24:51.434Z,26.93
2019-04-01T13:27:20.434Z,28.20
2019-04-01T13:29:49.276Z,28.90
2019-04-01T13:32:18.124Z,25.87
2019-04-01T13:34:46.952Z,31.23
2019-04-01T13:37:15.818Z,25.63
2019-04-01T13:39:46.270Z,27.30
2019-04-01T13:42:16.773Z,27.13
2019-04-01T13:44:47.664Z,25.07
2019-04-01T13:47:17.804Z,24.30
2019-04-01T13:49:46.648Z,23.17
2019-04-01T13:52:37.485Z,23.87
2019-04-01T13:55:06.580Z,21.83
2019-04-01T13:57:35.491Z,22.90
2019-04-01T14:00:06.347Z,25.10
2019-04-01T14:02:35.143Z,27.43
2019-04-01T14:05:06.908Z,21.10
2019-04-01T14:07:37.434Z,21.67
2019-04-01T14:10:08.198Z,23.23
2019-04-01T14:12:38.705Z,27.07
2019-04-01T14:15:08.333Z,25.37
2019-04-01T14:17:38.395Z,24.97
2019-04-01T14:20:07.478Z,28.85
2019-04-01T14:22:36.387Z,21.57
2019-04-01T14:25:07.650Z,21.93
2019-04-01T14:27:47.807Z,21.70
2019-04-01T14:30:16.645Z,23.70
2019-04-01T14:32:45.508Z,20.30
2019-04-01T14:35:14.377Z,20.97
2019-04-01T14:37:43.287Z,19.40
2019-04-01T14:40:12.126Z,20.37
2019-04-01T14:42:42.093Z,19.17
2019-04-01T14:45:11.096Z,21.17
2019-04-01T14:47:56.059Z,19.67
2019-04-01T14:50:10.972Z,20.10
2019-04-01T14:52:41.194Z,21.73
2019-04-01T14:55:10.275Z,20.17
2019-04-01T14:57:43.011Z,20.40
2019-04-01T15:00:13.721Z,26.60
2019-04-01T15:02:42.511Z,19.57
2019-04-01T15:05:11.620Z,20.77
2019-04-01T15:07:43.148Z,18.73
2019-04-01T15:10:12.165Z,21.30
2019-04-01T15:12:40.960Z,16.17
2019-04-01T15:15:09.914Z,15.93
2019-04-01T15:17:38.828Z,22.03
2019-04-01T15:20:09.386Z,19.13
2019-04-01T15:22:38.194Z,19.00
2019-04-01T15:25:07.725Z,19.03
2019-04-01T15:27:36.634Z,21.33
2019-04-01T15:30:09.138Z,21.63
2019-04-01T15:32:37.985Z,23.13
2019-04-01T15:35:09.800Z,24.47
2019-04-01T15:37:38.666Z,25.97
2019-04-01T15:40:07.880Z,22.77
2019-04-01T15:42:36.749Z,22.03
2019-04-01T15:45:06.370Z,23.73
2019-04-01T15:47:35.476Z,18.10
2019-04-01T15:50:06.286Z,20.47
2019-04-01T15:52:35.142Z,20.37
2019-04-01T15:55:05.434Z,23.60
2019-04-01T15:57:34.266Z,25.00
2019-04-01T16:00:03.401Z,22.67
2019-04-01T16:02:32.422Z,20.70
2019-04-01T16:05:01.253Z,21.90
2019-04-01T16:07:30.019Z,21.03
2019-04-01T16:09:58.770Z,20.73
2019-04-01T16:12:27.551Z,17.70
2019-04-01T16:14:56.371Z,24.10
2019-04-01T16:17:25.178Z,21.20
2019-04-01T16:19:53.994Z,20.43
2019-04-01T16:22:23.320Z,20.93
2019-04-01T16:24:52.162Z,20.17
2019-04-01T16:27:21.049Z,18.10
2019-04-01T16:29:49.934Z,22.87
2019-04-01T16:32:18.779Z,19.87
2019-04-01T16:34:47.647Z,28.37
2019-04-01T16:37:16.485Z,17.93
2019-04-01T16:39:45.372Z,22.73
2019-04-01T16:42:14.245Z,21.70
2019-04-01T16:44:44.098Z,21.80
2019-04-01T16:47:14.506Z,22.40
2019-04-01T16:49:43.563Z,22.73
2019-04-01T16:52:15.265Z,23.60
2019-04-01T16:54:45.878Z,24.40
2019-04-01T16:57:14.857Z,21.30
2019-04-01T16:59:43.743Z,30.23
2019-04-01T17:02:18.183Z,24.83
2019-04-01T17:04:46.275Z,42.93
2019-04-01T17:07:15.351Z,22.53
2019-04-01T17:09:44.186Z,29.60
2019-04-01T17:12:12.970Z,23.17
2019-04-01T17:14:41.812Z,21.27
2019-04-01T17:17:10.652Z,23.90
2019-04-01T17:19:39.510Z,19.13
2019-04-01T17:22:11.260Z,27.67
2019-04-01T17:24:38.784Z,20.87
2019-04-01T17:27:10.564Z,28.80
2019-04-01T17:29:40.433Z,26.40
2019-04-01T17:32:09.308Z,19.67
2019-04-01T17:34:38.153Z,22.23
2019-04-01T17:37:07.138Z,24.93
2019-04-01T17:39:36.105Z,22.83
2019-04-01T17:42:05.524Z,23.07
2019-04-01T17:44:34.439Z,21.87
2019-04-01T17:47:03.299Z,22.23
2019-04-01T17:49:32.174Z,30.50
2019-04-01T17:52:04.219Z,21.77
2019-04-01T17:54:31.564Z,22.83
2019-04-01T17:57:00.412Z,24.80
2019-04-01T17:59:29.258Z,26.63
2019-04-01T18:01:58.121Z,21.77
2019-04-01T18:04:27.047Z,21.10
2019-04-01T18:06:58.258Z,23.23
2019-04-01T18:09:26.447Z,19.73
2019-04-01T18:11:55.507Z,24.07
2019-04-01T18:14:24.402Z,27.07
2019-04-01T18:16:53.220Z,24.73
2019-04-01T18:19:22.101Z,34.17
2019-04-01T18:21:53.290Z,32.10
2019-04-01T18:24:29.064Z,30.00
2019-04-01T18:26:57.913Z,24.17
2019-04-01T18:29:26.863Z,25.77
2019-04-01T18:31:58.868Z,27.27
2019-04-01T18:34:27.935Z,24.67
2019-04-01T18:36:56.859Z,24.87
2019-04-01T18:39:25.868Z,25.80
2019-04-01T18:41:54.721Z,23.47
2019-04-01T18:44:25.279Z,27.87
2019-04-01T18:46:54.239Z,28.77
2019-04-01T18:49:23.099Z,27.67
2019-04-01T18:51:52.016Z,26.77
2019-04-01T18:54:20.893Z,28.17
2019-04-01T18:56:51.796Z,24.20
2019-04-01T18:59:21.215Z,23.70
2019-04-01T19:01:51.422Z,27.67
2019-04-01T19:04:22.113Z,29.43
2019-04-01T19:06:50.968Z,30.03
2019-04-01T19:09:19.882Z,25.23
2019-04-01T19:11:48.708Z,26.50
2019-04-01T19:14:21.805Z,26.53
2019-04-01T19:16:56.488Z,26.63
2019-04-01T19:19:25.423Z,23.87
2019-04-01T19:21:54.229Z,27.47
2019-04-01T19:24:23.041Z,30.07
2019-04-01T19:26:52.238Z,27.83
2019-04-01T19:29:23.445Z,29.20
2019-04-01T19:31:52.414Z,30.97
2019-04-01T19:34:21.369Z,26.27
2019-04-01T19:36:50.235Z,28.13
2019-04-01T19:39:19.136Z,27.00
2019-04-01T19:41:48.111Z,28.63
2019-04-01T19:44:17.879Z,31.57
2019-04-01T19:46:46.750Z,28.07
2019-04-01T19:49:15.611Z,28.10
2019-04-01T19:51:45.733Z,31.97
2019-04-01T19:54:14.584Z,27.53
2019-04-01T19:56:43.456Z,30.17
2019-04-01T19:59:12.368Z,28.27
2019-04-01T20:01:41.279Z,29.83
2019-04-01T20:04:10.105Z,32.07
2019-04-01T20:06:40.869Z,33.37
2019-04-01T20:09:09.523Z,28.13
2019-04-01T20:11:38.399Z,29.47
2019-04-01T20:14:07.270Z,28.87
2019-04-01T20:16:36.193Z,28.47
2019-04-01T20:19:05.430Z,31.33
2019-04-01T20:21:35.371Z,28.00
2019-04-01T20:24:04.250Z,29.03
2019-04-01T20:26:33.145Z,26.73
2019-04-01T20:29:01.982Z,30.00
2019-04-01T20:31:30.845Z,27.93
2019-04-01T20:34:04.102Z,27.30
2019-04-01T20:36:33.441Z,35.67
2019-04-01T20:39:02.309Z,28.10
2019-04-01T20:41:31.176Z,26.67
2019-04-01T20:44:00.016Z,30.67
2019-04-01T20:46:28.816Z,31.60
2019-04-01T20:48:57.692Z,29.10
2019-04-01T20:51:26.553Z,28.97
2019-04-01T20:53:55.392Z,32.43
2019-04-01T20:56:24.257Z,28.97
2019-04-01T20:58:55.776Z,28.50
2019-04-01T21:01:23.731Z,27.07
2019-04-01T21:03:52.573Z,29.30
2019-04-01T21:06:22.068Z,28.10
2019-04-01T21:08:51.171Z,28.40
2019-04-01T21:11:20.066Z,30.47
2019-04-01T21:13:48.886Z,28.13
2019-04-01T21:16:17.703Z,26.50
2019-04-01T21:18:48.002Z,30.73
2019-04-01T21:21:17.144Z,28.37
2019-04-01T21:23:46.122Z,31.00
2019-04-01T21:26:14.891Z,31.47
2019-04-01T21:28:43.783Z,29.47
2019-04-01T21:31:12.550Z,31.10
2019-04-01T21:33:43.100Z,29.50
2019-04-01T21:36:11.933Z,27.07
2019-04-01T21:38:40.810Z,31.13
2019-04-01T21:41:09.653Z,30.70
2019-04-01T21:43:38.543Z,27.03
2019-04-01T21:46:07.377Z,24.90
2019-04-01T21:48:36.158Z,26.23
2019-04-01T21:51:05.020Z,27.97
2019-04-01T21:53:33.862Z,27.23
2019-04-01T21:56:02.693Z,30.27
2019-04-01T21:58:31.560Z,37.47
2019-04-01T22:01:01.958Z,25.23
2019-04-01T22:03:30.883Z,29.57
2019-04-01T22:05:59.710Z,29.20
2019-04-01T22:08:28.572Z,25.90
2019-04-01T22:10:57.467Z,34.90
2019-04-01T22:13:26.383Z,26.73
2019-04-01T22:15:56.245Z,28.87
2019-04-01T22:18:25.042Z,26.73
2019-04-01T22:20:53.863Z,24.50
2019-04-01T22:23:22.788Z,26.10
2019-04-01T22:25:51.653Z,25.97
2019-04-01T22:28:21.238Z,28.47
2019-04-01T22:30:51.004Z,27.43
2019-04-01T22:33:19.881Z,23.03
2019-04-01T22:35:48.733Z,34.53
2019-04-01T22:38:24.858Z,31.27
2019-04-01T22:40:48.095Z,29.00
2019-04-01T22:43:17.011Z,30.57
2019-04-01T22:45:45.881Z,29.53
2019-04-01T22:48:14.724Z,27.67
2019-04-01T22:50:43.576Z,32.03
2019-04-01T22:53:12.417Z,33.93
2019-04-01T22:55:41.341Z,32.87
2019-04-01T22:58:10.172Z,30.33
2019-04-01T23:00:39.052Z,30.50
2019-04-01T23:03:07.877Z,28.63
2019-04-01T23:05:37.333Z,27.73
2019-04-01T23:08:06.571Z,29.57
2019-04-01T23:10:35.532Z,24.97
2019-04-01T23:13:04.368Z,30.83
2019-04-01T23:15:33.248Z,24.47
2019-04-01T23:18:02.008Z,26.63
2019-04-01T23:20:30.904Z,22.80
2019-04-01T23:22:59.721Z,28.57
2019-04-01T23:25:28.645Z,24.93
2019-04-01T23:27:57.524Z,27.53
2019-04-01T23:30:26.376Z,28.53
2019-04-01T23:32:55.228Z,25.43
2019-04-01T23:35:25.155Z,28.40
2019-04-01T23:37:54.754Z,29.57
2019-04-01T23:40:23.622Z,24.07
2019-04-01T23:42:52.504Z,23.93
2019-04-01T23:45:21.542Z,34.93
2019-04-01T23:47:50.391Z,30.90
2019-04-01T23:50:19.173Z,28.30
2019-04-01T23:52:48.050Z,24.00
2019-04-01T23:55:16.854Z,28.43
2019-04-01T23:57:45.685Z,23.90
